Geeville, Mississippi
Current Conditions -  °F | °C
As of 6:53 AM on Friday 28 Nov 2014 (Local Time) from KTUP Reporting Station
Clear Clear  
Wind Chill: -3°   Ceiling: Unl
Heat Index: -3°   Visibility: 7mi
Dew Point: -5°   Wind: 0mph
Humidity: 85%   Direction: NA
Pressure: 30.44"   Gusts: NA
Location:  34.5357°N, 88.6348°W
Report Text: KTUP 281253Z 00000KT 7SM CLR M03/M05 A3044 RMK AO2 SLP311 T10281050 $
Loading
Personal Weather Stations






























Interactive Weather Map New forecast layout! Learn more

10-Day Weather Forecast

Advertisements
Track Severe Weather on mobile